sensor_id;sensor_type;location;lat;lon;timestamp;P1;durP1;ratioP1;P2;durP2;ratioP2
39256;SDS011;67272;48.066;11.038;2024-03-17T00:01:44;6.40;;;5.63;;
39256;SDS011;67272;48.066;11.038;2024-03-17T00:04:10;6.27;;;5.67;;
39256;SDS011;67272;48.066;11.038;2024-03-17T00:06:37;6.10;;;5.60;;
39256;SDS011;67272;48.066;11.038;2024-03-17T00:09:04;5.97;;;5.47;;
39256;SDS011;67272;48.066;11.038;2024-03-17T00:11:32;5.70;;;5.20;;
39256;SDS011;67272;48.066;11.038;2024-03-17T00:14:00;7.00;;;5.93;;
39256;SDS011;67272;48.066;11.038;2024-03-17T00:16:27;5.87;;;5.37;;
39256;SDS011;67272;48.066;11.038;2024-03-17T00:18:56;6.23;;;5.63;;
39256;SDS011;67272;48.066;11.038;2024-03-17T00:21:22;6.30;;;5.70;;
39256;SDS011;67272;48.066;11.038;2024-03-17T00:23:51;5.87;;;5.27;;
39256;SDS011;67272;48.066;11.038;2024-03-17T00:26:24;6.33;;;5.73;;
39256;SDS011;67272;48.066;11.038;2024-03-17T00:28:53;5.87;;;5.33;;
39256;SDS011;67272;48.066;11.038;2024-03-17T00:31:19;6.63;;;6.03;;
39256;SDS011;67272;48.066;11.038;2024-03-17T00:33:46;7.57;;;6.07;;
39256;SDS011;67272;48.066;11.038;2024-03-17T00:36:16;7.17;;;6.47;;
39256;SDS011;67272;48.066;11.038;2024-03-17T00:38:46;6.87;;;6.17;;
39256;SDS011;67272;48.066;11.038;2024-03-17T00:41:12;6.67;;;6.07;;
39256;SDS011;67272;48.066;11.038;2024-03-17T00:43:38;6.47;;;5.87;;
39256;SDS011;67272;48.066;11.038;2024-03-17T00:46:05;6.83;;;6.23;;
39256;SDS011;67272;48.066;11.038;2024-03-17T00:48:32;6.63;;;6.03;;
39256;SDS011;67272;48.066;11.038;2024-03-17T00:51:01;7.53;;;6.73;;
39256;SDS011;67272;48.066;11.038;2024-03-17T00:53:28;6.60;;;5.97;;
39256;SDS011;67272;48.066;11.038;2024-03-17T00:56:02;7.30;;;6.40;;
39256;SDS011;67272;48.066;11.038;2024-03-17T00:58:32;7.87;;;6.67;;
39256;SDS011;67272;48.066;11.038;2024-03-17T01:01:04;7.23;;;6.40;;
39256;SDS011;67272;48.066;11.038;2024-03-17T01:03:31;7.30;;;6.47;;
39256;SDS011;67272;48.066;11.038;2024-03-17T01:05:57;7.70;;;6.90;;
39256;SDS011;67272;48.066;11.038;2024-03-17T01:08:24;7.77;;;6.93;;
39256;SDS011;67272;48.066;11.038;2024-03-17T01:10:50;8.03;;;7.13;;
39256;SDS011;67272;48.066;11.038;2024-03-17T01:13:20;7.77;;;7.03;;
39256;SDS011;67272;48.066;11.038;2024-03-17T01:15:52;8.00;;;7.20;;
39256;SDS011;67272;48.066;11.038;2024-03-17T01:18:22;8.00;;;7.20;;
39256;SDS011;67272;48.066;11.038;2024-03-17T01:20:51;8.27;;;7.47;;
39256;SDS011;67272;48.066;11.038;2024-03-17T01:23:23;7.77;;;6.97;;
39256;SDS011;67272;48.066;11.038;2024-03-17T01:25:50;8.07;;;7.27;;
39256;SDS011;67272;48.066;11.038;2024-03-17T01:28:22;8.07;;;6.77;;
39256;SDS011;67272;48.066;11.038;2024-03-17T01:30:48;7.77;;;6.97;;
39256;SDS011;67272;48.066;11.038;2024-03-17T01:33:18;8.23;;;7.43;;
39256;SDS011;67272;48.066;11.038;2024-03-17T01:35:44;6.63;;;6.03;;
39256;SDS011;67272;48.066;11.038;2024-03-17T01:38:11;7.23;;;6.53;;
39256;SDS011;67272;48.066;11.038;2024-03-17T01:40:37;6.77;;;6.07;;
39256;SDS011;67272;48.066;11.038;2024-03-17T01:43:09;7.17;;;6.47;;
39256;SDS011;67272;48.066;11.038;2024-03-17T01:45:36;7.63;;;6.27;;
39256;SDS011;67272;48.066;11.038;2024-03-17T01:48:08;7.33;;;6.50;;
39256;SDS011;67272;48.066;11.038;2024-03-17T01:50:38;7.00;;;6.07;;
39256;SDS011;67272;48.066;11.038;2024-03-17T01:53:07;7.40;;;6.70;;
39256;SDS011;67272;48.066;11.038;2024-03-17T01:55:36;8.97;;;8.07;;
39256;SDS011;67272;48.066;11.038;2024-03-17T01:58:06;8.77;;;7.80;;
39256;SDS011;67272;48.066;11.038;2024-03-17T02:00:36;8.17;;;7.17;;
39256;SDS011;67272;48.066;11.038;2024-03-17T02:03:08;8.00;;;7.20;;
39256;SDS011;67272;48.066;11.038;2024-03-17T02:05:35;8.00;;;7.27;;
39256;SDS011;67272;48.066;11.038;2024-03-17T02:08:07;10.87;;;9.83;;
39256;SDS011;67272;48.066;11.038;2024-03-17T02:10:34;7.20;;;6.50;;
39256;SDS011;67272;48.066;11.038;2024-03-17T02:13:06;7.47;;;6.77;;
39256;SDS011;67272;48.066;11.038;2024-03-17T02:15:33;7.53;;;6.77;;
39256;SDS011;67272;48.066;11.038;2024-03-17T02:17:59;8.53;;;7.27;;
39256;SDS011;67272;48.066;11.038;2024-03-17T02:20:32;8.13;;;7.27;;
39256;SDS011;67272;48.066;11.038;2024-03-17T02:23:17;7.97;;;7.03;;
39256;SDS011;67272;48.066;11.038;2024-03-17T02:25:46;8.40;;;6.90;;
39256;SDS011;67272;48.066;11.038;2024-03-17T02:28:14;7.80;;;6.63;;
39256;SDS011;67272;48.066;11.038;2024-03-17T02:30:49;8.30;;;6.77;;
39256;SDS011;67272;48.066;11.038;2024-03-17T02:33:16;7.67;;;6.80;;
39256;SDS011;67272;48.066;11.038;2024-03-17T02:35:43;8.10;;;6.60;;
39256;SDS011;67272;48.066;11.038;2024-03-17T02:38:15;8.03;;;6.97;;
39256;SDS011;67272;48.066;11.038;2024-03-17T02:41:04;8.50;;;6.53;;
39256;SDS011;67272;48.066;11.038;2024-03-17T02:43:31;9.80;;;6.73;;
39256;SDS011;67272;48.066;11.038;2024-03-17T02:45:57;8.83;;;6.53;;
39256;SDS011;67272;48.066;11.038;2024-03-17T02:48:23;8.23;;;6.63;;
39256;SDS011;67272;48.066;11.038;2024-03-17T02:50:53;9.77;;;7.83;;
39256;SDS011;67272;48.066;11.038;2024-03-17T02:53:21;9.03;;;7.17;;
39256;SDS011;67272;48.066;11.038;2024-03-17T02:55:51;9.20;;;7.10;;
39256;SDS011;67272;48.066;11.038;2024-03-17T02:58:17;15.57;;;9.90;;
39256;SDS011;67272;48.066;11.038;2024-03-17T03:00:43;18.03;;;11.80;;
39256;SDS011;67272;48.066;11.038;2024-03-17T03:03:10;14.13;;;10.07;;
39256;SDS011;67272;48.066;11.038;2024-03-17T03:05:36;14.00;;;9.60;;
39256;SDS011;67272;48.066;11.038;2024-03-17T03:08:06;14.00;;;10.03;;
39256;SDS011;67272;48.066;11.038;2024-03-17T03:10:33;12.03;;;9.23;;
39256;SDS011;67272;48.066;11.038;2024-03-17T03:13:00;15.83;;;10.37;;
39256;SDS011;67272;48.066;11.038;2024-03-17T03:15:27;14.93;;;9.87;;
39256;SDS011;67272;48.066;11.038;2024-03-17T03:17:56;12.93;;;9.73;;
39256;SDS011;67272;48.066;11.038;2024-03-17T03:20:23;14.80;;;10.20;;
39256;SDS011;67272;48.066;11.038;2024-03-17T03:22:49;90.00;;;15.03;;
39256;SDS011;67272;48.066;11.038;2024-03-17T03:25:19;111.40;;;14.00;;
39256;SDS011;67272;48.066;11.038;2024-03-17T03:27:46;118.50;;;14.73;;
39256;SDS011;67272;48.066;11.038;2024-03-17T03:30:15;103.53;;;13.50;;
39256;SDS011;67272;48.066;11.038;2024-03-17T03:32:41;90.43;;;13.13;;
39256;SDS011;67272;48.066;11.038;2024-03-17T03:35:08;70.30;;;11.80;;
39256;SDS011;67272;48.066;11.038;2024-03-17T03:37:34;114.63;;;14.67;;
39256;SDS011;67272;48.066;11.038;2024-03-17T03:40:01;98.63;;;13.10;;
39256;SDS011;67272;48.066;11.038;2024-03-17T03:42:33;80.90;;;13.37;;
39256;SDS011;67272;48.066;11.038;2024-03-17T03:44:59;83.13;;;13.33;;
39256;SDS011;67272;48.066;11.038;2024-03-17T03:47:26;56.90;;;11.57;;
39256;SDS011;67272;48.066;11.038;2024-03-17T03:49:55;55.23;;;11.37;;
39256;SDS011;67272;48.066;11.038;2024-03-17T03:52:22;35.53;;;9.30;;
39256;SDS011;67272;48.066;11.038;2024-03-17T03:54:59;42.03;;;9.83;;
39256;SDS011;67272;48.066;11.038;2024-03-17T03:57:26;41.57;;;9.63;;
39256;SDS011;67272;48.066;11.038;2024-03-17T03:59:55;42.47;;;9.33;;
39256;SDS011;67272;48.066;11.038;2024-03-17T04:02:21;20.67;;;7.87;;
39256;SDS011;67272;48.066;11.038;2024-03-17T04:04:48;15.83;;;7.80;;
39256;SDS011;67272;48.066;11.038;2024-03-17T04:07:20;21.40;;;8.10;;
39256;SDS011;67272;48.066;11.038;2024-03-17T04:09:59;11.40;;;7.53;;
39256;SDS011;67272;48.066;11.038;2024-03-17T04:12:27;9.67;;;7.40;;
39256;SDS011;67272;48.066;11.038;2024-03-17T04:14:53;10.20;;;7.80;;
39256;SDS011;67272;48.066;11.038;2024-03-17T04:17:20;10.83;;;8.03;;
39256;SDS011;67272;48.066;11.038;2024-03-17T04:19:47;9.67;;;8.10;;
39256;SDS011;67272;48.066;11.038;2024-03-17T04:22:20;11.37;;;7.83;;
39256;SDS011;67272;48.066;11.038;2024-03-17T04:24:50;10.80;;;8.13;;
39256;SDS011;67272;48.066;11.038;2024-03-17T04:27:20;10.60;;;8.70;;
39256;SDS011;67272;48.066;11.038;2024-03-17T04:29:47;11.23;;;8.87;;
39256;SDS011;67272;48.066;11.038;2024-03-17T04:32:13;10.03;;;7.70;;
39256;SDS011;67272;48.066;11.038;2024-03-17T04:34:40;10.57;;;8.13;;
39256;SDS011;67272;48.066;11.038;2024-03-17T04:37:08;128.77;;;19.13;;
39256;SDS011;67272;48.066;11.038;2024-03-17T04:39:41;20.47;;;8.37;;
39256;SDS011;67272;48.066;11.038;2024-03-17T04:42:11;19.77;;;8.43;;
39256;SDS011;67272;48.066;11.038;2024-03-17T04:44:39;22.83;;;8.57;;
39256;SDS011;67272;48.066;11.038;2024-03-17T04:47:06;42.77;;;9.70;;
39256;SDS011;67272;48.066;11.038;2024-03-17T04:49:34;21.37;;;9.73;;
39256;SDS011;67272;48.066;11.038;2024-03-17T04:52:01;41.67;;;10.73;;
39256;SDS011;67272;48.066;11.038;2024-03-17T04:54:30;86.83;;;13.07;;
39256;SDS011;67272;48.066;11.038;2024-03-17T04:56:57;43.33;;;9.50;;
39256;SDS011;67272;48.066;11.038;2024-03-17T04:59:23;24.47;;;9.23;;
39256;SDS011;67272;48.066;11.038;2024-03-17T05:01:50;53.27;;;10.30;;
39256;SDS011;67272;48.066;11.038;2024-03-17T05:04:17;39.63;;;9.10;;
39256;SDS011;67272;48.066;11.038;2024-03-17T05:06:43;28.43;;;9.47;;
39256;SDS011;67272;48.066;11.038;2024-03-17T05:09:12;43.50;;;9.93;;
39256;SDS011;67272;48.066;11.038;2024-03-17T05:11:39;35.20;;;10.27;;
39256;SDS011;67272;48.066;11.038;2024-03-17T05:14:08;40.73;;;10.83;;
39256;SDS011;67272;48.066;11.038;2024-03-17T05:16:35;51.93;;;11.47;;
39256;SDS011;67272;48.066;11.038;2024-03-17T05:19:01;29.63;;;10.43;;
39256;SDS011;67272;48.066;11.038;2024-03-17T05:21:29;38.03;;;10.77;;
39256;SDS011;67272;48.066;11.038;2024-03-17T05:24:00;59.00;;;11.27;;
39256;SDS011;67272;48.066;11.038;2024-03-17T05:26:27;20.93;;;9.83;;
39256;SDS011;67272;48.066;11.038;2024-03-17T05:28:55;27.53;;;10.47;;
39256;SDS011;67272;48.066;11.038;2024-03-17T05:31:22;26.97;;;10.20;;
39256;SDS011;67272;48.066;11.038;2024-03-17T05:33:51;37.90;;;11.27;;
39256;SDS011;67272;48.066;11.038;2024-03-17T05:36:17;24.37;;;10.53;;
39256;SDS011;67272;48.066;11.038;2024-03-17T05:38:46;34.40;;;10.50;;
39256;SDS011;67272;48.066;11.038;2024-03-17T05:41:13;25.30;;;10.73;;
39256;SDS011;67272;48.066;11.038;2024-03-17T05:43:46;42.40;;;11.87;;
39256;SDS011;67272;48.066;11.038;2024-03-17T05:46:14;18.00;;;10.50;;
39256;SDS011;67272;48.066;11.038;2024-03-17T05:48:40;21.20;;;11.60;;
39256;SDS011;67272;48.066;11.038;2024-03-17T05:51:07;32.90;;;11.77;;
39256;SDS011;67272;48.066;11.038;2024-03-17T05:53:34;30.93;;;11.47;;
39256;SDS011;67272;48.066;11.038;2024-03-17T05:56:01;32.87;;;11.70;;
39256;SDS011;67272;48.066;11.038;2024-03-17T05:58:27;37.80;;;10.67;;
39256;SDS011;67272;48.066;11.038;2024-03-17T06:00:53;37.67;;;10.93;;
39256;SDS011;67272;48.066;11.038;2024-03-17T06:03:22;28.37;;;11.03;;
39256;SDS011;67272;48.066;11.038;2024-03-17T06:05:49;17.53;;;10.00;;
39256;SDS011;67272;48.066;11.038;2024-03-17T06:08:15;32.50;;;10.97;;
39256;SDS011;67272;48.066;11.038;2024-03-17T06:10:46;24.20;;;9.60;;
39256;SDS011;67272;48.066;11.038;2024-03-17T06:13:13;40.90;;;11.07;;
39256;SDS011;67272;48.066;11.038;2024-03-17T06:15:42;33.10;;;11.07;;
39256;SDS011;67272;48.066;11.038;2024-03-17T06:18:09;29.27;;;10.83;;
39256;SDS011;67272;48.066;11.038;2024-03-17T06:20:42;25.40;;;10.87;;
39256;SDS011;67272;48.066;11.038;2024-03-17T06:23:12;17.27;;;9.57;;
39256;SDS011;67272;48.066;11.038;2024-03-17T06:28:06;13.00;;;9.60;;
39256;SDS011;67272;48.066;11.038;2024-03-17T06:30:32;14.00;;;9.20;;
39256;SDS011;67272;48.066;11.038;2024-03-17T06:33:00;20.57;;;9.43;;
39256;SDS011;67272;48.066;11.038;2024-03-17T06:35:30;20.60;;;9.20;;
39256;SDS011;67272;48.066;11.038;2024-03-17T06:37:58;24.67;;;9.07;;
39256;SDS011;67272;48.066;11.038;2024-03-17T06:40:26;26.30;;;9.63;;
39256;SDS011;67272;48.066;11.038;2024-03-17T06:42:53;32.87;;;9.43;;
39256;SDS011;67272;48.066;11.038;2024-03-17T06:45:19;35.17;;;8.47;;
39256;SDS011;67272;48.066;11.038;2024-03-17T06:47:46;30.13;;;8.80;;
39256;SDS011;67272;48.066;11.038;2024-03-17T06:50:21;34.50;;;9.63;;
39256;SDS011;67272;48.066;11.038;2024-03-17T06:52:48;26.70;;;8.27;;
39256;SDS011;67272;48.066;11.038;2024-03-17T06:55:14;38.13;;;8.70;;
39256;SDS011;67272;48.066;11.038;2024-03-17T06:57:43;21.97;;;8.17;;
39256;SDS011;67272;48.066;11.038;2024-03-17T07:00:13;24.47;;;7.77;;
39256;SDS011;67272;48.066;11.038;2024-03-17T07:02:40;19.17;;;8.10;;
39256;SDS011;67272;48.066;11.038;2024-03-17T07:05:11;13.53;;;6.93;;
39256;SDS011;67272;48.066;11.038;2024-03-17T07:07:43;8.93;;;6.40;;
39256;SDS011;67272;48.066;11.038;2024-03-17T07:10:09;9.90;;;6.30;;
39256;SDS011;67272;48.066;11.038;2024-03-17T07:12:43;7.80;;;6.83;;
39256;SDS011;67272;48.066;11.038;2024-03-17T07:15:12;7.90;;;7.20;;
39256;SDS011;67272;48.066;11.038;2024-03-17T07:17:39;9.73;;;5.90;;
39256;SDS011;67272;48.066;11.038;2024-03-17T07:20:05;9.20;;;6.20;;
39256;SDS011;67272;48.066;11.038;2024-03-17T07:22:33;5.67;;;5.10;;
39256;SDS011;67272;48.066;11.038;2024-03-17T07:25:00;4.73;;;4.33;;
39256;SDS011;67272;48.066;11.038;2024-03-17T07:27:27;4.47;;;4.07;;
39256;SDS011;67272;48.066;11.038;2024-03-17T07:29:53;3.90;;;3.60;;
39256;SDS011;67272;48.066;11.038;2024-03-17T07:32:21;4.60;;;4.20;;
39256;SDS011;67272;48.066;11.038;2024-03-17T07:34:48;4.93;;;4.53;;
39256;SDS011;67272;48.066;11.038;2024-03-17T07:37:15;5.20;;;4.80;;
39256;SDS011;67272;48.066;11.038;2024-03-17T07:39:42;5.50;;;5.10;;
39256;SDS011;67272;48.066;11.038;2024-03-17T07:42:08;3.78;;;3.47;;
39256;SDS011;67272;48.066;11.038;2024-03-17T07:44:35;4.00;;;3.70;;
39256;SDS011;67272;48.066;11.038;2024-03-17T07:47:02;3.22;;;3.03;;
39256;SDS011;67272;48.066;11.038;2024-03-17T07:49:31;2.55;;;2.38;;
39256;SDS011;67272;48.066;11.038;2024-03-17T07:51:58;2.70;;;2.50;;
39256;SDS011;67272;48.066;11.038;2024-03-17T07:54:24;2.90;;;2.70;;
39256;SDS011;67272;48.066;11.038;2024-03-17T07:56:51;2.80;;;2.60;;
39256;SDS011;67272;48.066;11.038;2024-03-17T07:59:17;2.60;;;2.40;;
39256;SDS011;67272;48.066;11.038;2024-03-17T08:01:44;2.10;;;2.00;;
39256;SDS011;67272;48.066;11.038;2024-03-17T08:04:11;1.98;;;1.88;;
39256;SDS011;67272;48.066;11.038;2024-03-17T08:06:40;1.90;;;1.80;;
39256;SDS011;67272;48.066;11.038;2024-03-17T08:09:07;1.95;;;1.83;;
39256;SDS011;67272;48.066;11.038;2024-03-17T08:11:34;1.88;;;1.70;;
39256;SDS011;67272;48.066;11.038;2024-03-17T08:14:01;1.77;;;1.67;;
39256;SDS011;67272;48.066;11.038;2024-03-17T08:16:30;2.50;;;2.30;;
39256;SDS011;67272;48.066;11.038;2024-03-17T08:18:57;2.25;;;2.15;;
39256;SDS011;67272;48.066;11.038;2024-03-17T08:21:23;1.98;;;1.88;;
39256;SDS011;67272;48.066;11.038;2024-03-17T08:23:53;1.70;;;1.60;;
39256;SDS011;67272;48.066;11.038;2024-03-17T08:26:19;1.80;;;1.70;;
39256;SDS011;67272;48.066;11.038;2024-03-17T08:28:46;1.85;;;1.65;;
39256;SDS011;67272;48.066;11.038;2024-03-17T08:31:12;1.60;;;1.50;;
39256;SDS011;67272;48.066;11.038;2024-03-17T08:33:40;1.70;;;1.60;;
39256;SDS011;67272;48.066;11.038;2024-03-17T08:36:07;2.40;;;1.80;;
39256;SDS011;67272;48.066;11.038;2024-03-17T08:38:37;1.80;;;1.70;;
39256;SDS011;67272;48.066;11.038;2024-03-17T08:41:04;3.42;;;3.13;;
39256;SDS011;67272;48.066;11.038;2024-03-17T08:43:31;1.50;;;1.40;;
39256;SDS011;67272;48.066;11.038;2024-03-17T08:45:57;1.73;;;1.63;;
39256;SDS011;67272;48.066;11.038;2024-03-17T08:48:26;2.30;;;1.73;;
39256;SDS011;67272;48.066;11.038;2024-03-17T08:50:54;2.50;;;2.30;;
39256;SDS011;67272;48.066;11.038;2024-03-17T08:53:21;3.25;;;2.08;;
39256;SDS011;67272;48.066;11.038;2024-03-17T08:55:47;2.08;;;1.98;;
39256;SDS011;67272;48.066;11.038;2024-03-17T08:58:13;2.15;;;1.95;;
39256;SDS011;67272;48.066;11.038;2024-03-17T09:00:40;2.10;;;1.90;;
39256;SDS011;67272;48.066;11.038;2024-03-17T09:03:09;2.42;;;2.00;;
39256;SDS011;67272;48.066;11.038;2024-03-17T09:05:37;2.10;;;2.00;;
39256;SDS011;67272;48.066;11.038;2024-03-17T09:08:04;2.22;;;1.92;;
39256;SDS011;67272;48.066;11.038;2024-03-17T09:10:30;2.13;;;1.92;;
39256;SDS011;67272;48.066;11.038;2024-03-17T09:12:56;2.55;;;2.13;;
39256;SDS011;67272;48.066;11.038;2024-03-17T09:15:22;1.98;;;1.88;;
39256;SDS011;67272;48.066;11.038;2024-03-17T09:17:49;2.60;;;2.40;;
39256;SDS011;67272;48.066;11.038;2024-03-17T09:20:15;2.10;;;2.00;;
39256;SDS011;67272;48.066;11.038;2024-03-17T09:22:42;2.95;;;1.90;;
39256;SDS011;67272;48.066;11.038;2024-03-17T09:25:08;2.67;;;2.03;;
39256;SDS011;67272;48.066;11.038;2024-03-17T09:27:35;2.80;;;2.10;;
39256;SDS011;67272;48.066;11.038;2024-03-17T09:30:05;1.88;;;1.77;;
39256;SDS011;67272;48.066;11.038;2024-03-17T09:32:37;1.77;;;1.60;;
39256;SDS011;67272;48.066;11.038;2024-03-17T09:35:04;3.22;;;1.98;;
39256;SDS011;67272;48.066;11.038;2024-03-17T09:37:30;2.05;;;1.90;;
39256;SDS011;67272;48.066;11.038;2024-03-17T09:39:57;2.83;;;2.10;;
39256;SDS011;67272;48.066;11.038;2024-03-17T09:42:25;2.30;;;2.10;;
39256;SDS011;67272;48.066;11.038;2024-03-17T09:44:55;2.67;;;1.90;;
39256;SDS011;67272;48.066;11.038;2024-03-17T09:47:24;1.80;;;1.70;;
39256;SDS011;67272;48.066;11.038;2024-03-17T09:49:56;1.80;;;1.70;;
39256;SDS011;67272;48.066;11.038;2024-03-17T09:52:24;1.80;;;1.70;;
39256;SDS011;67272;48.066;11.038;2024-03-17T09:57:20;2.33;;;1.95;;
39256;SDS011;67272;48.066;11.038;2024-03-17T09:59:55;1.98;;;1.77;;
39256;SDS011;67272;48.066;11.038;2024-03-17T10:02:24;2.13;;;1.98;;
39256;SDS011;67272;48.066;11.038;2024-03-17T10:04:53;2.65;;;1.77;;
39256;SDS011;67272;48.066;11.038;2024-03-17T10:07:25;1.90;;;1.80;;
39256;SDS011;67272;48.066;11.038;2024-03-17T10:10:15;2.30;;;2.05;;
39256;SDS011;67272;48.066;11.038;2024-03-17T10:12:43;2.85;;;1.85;;
39256;SDS011;67272;48.066;11.038;2024-03-17T10:15:12;2.08;;;1.77;;
39256;SDS011;67272;48.066;11.038;2024-03-17T10:17:38;2.20;;;2.00;;
39256;SDS011;67272;48.066;11.038;2024-03-17T10:20:15;1.73;;;1.63;;
39256;SDS011;67272;48.066;11.038;2024-03-17T10:25:26;2.00;;;1.90;;
39256;SDS011;67272;48.066;11.038;2024-03-17T10:27:53;3.03;;;1.88;;
39256;SDS011;67272;48.066;11.038;2024-03-17T10:30:23;1.88;;;1.70;;
39256;SDS011;67272;48.066;11.038;2024-03-17T10:32:52;1.70;;;1.60;;
39256;SDS011;67272;48.066;11.038;2024-03-17T10:35:31;2.58;;;1.98;;
39256;SDS011;67272;48.066;11.038;2024-03-17T10:38:02;2.85;;;1.80;;
39256;SDS011;67272;48.066;11.038;2024-03-17T10:40:29;2.47;;;1.98;;
39256;SDS011;67272;48.066;11.038;2024-03-17T10:43:01;2.83;;;1.77;;
39256;SDS011;67272;48.066;11.038;2024-03-17T10:45:28;2.80;;;1.90;;
39256;SDS011;67272;48.066;11.038;2024-03-17T10:48:01;1.90;;;1.70;;
39256;SDS011;67272;48.066;11.038;2024-03-17T10:50:31;2.72;;;1.75;;
39256;SDS011;67272;48.066;11.038;2024-03-17T10:53:06;1.95;;;1.85;;
39256;SDS011;67272;48.066;11.038;2024-03-17T10:55:46;2.10;;;1.90;;
39256;SDS011;67272;48.066;11.038;2024-03-17T10:58:32;2.20;;;1.90;;
39256;SDS011;67272;48.066;11.038;2024-03-17T11:01:02;2.65;;;1.42;;
39256;SDS011;67272;48.066;11.038;2024-03-17T11:03:32;1.50;;;1.40;;
39256;SDS011;67272;48.066;11.038;2024-03-17T11:05:59;2.75;;;1.65;;
39256;SDS011;67272;48.066;11.038;2024-03-17T11:08:35;1.83;;;1.70;;
39256;SDS011;67272;48.066;11.038;2024-03-17T11:11:14;1.90;;;1.70;;
39256;SDS011;67272;48.066;11.038;2024-03-17T11:16:58;2.28;;;1.75;;
39256;SDS011;67272;48.066;11.038;2024-03-17T11:19:24;2.38;;;1.40;;
39256;SDS011;67272;48.066;11.038;2024-03-17T11:21:50;2.35;;;1.80;;
39256;SDS011;67272;48.066;11.038;2024-03-17T11:24:18;3.70;;;1.52;;
39256;SDS011;67272;48.066;11.038;2024-03-17T11:26:45;1.98;;;1.30;;
39256;SDS011;67272;48.066;11.038;2024-03-17T11:32:24;3.03;;;1.50;;
39256;SDS011;67272;48.066;11.038;2024-03-17T11:35:12;2.33;;;1.65;;
39256;SDS011;67272;48.066;11.038;2024-03-17T11:37:42;1.70;;;1.60;;
39256;SDS011;67272;48.066;11.038;2024-03-17T11:40:24;2.50;;;1.50;;
39256;SDS011;67272;48.066;11.038;2024-03-17T11:43:00;1.75;;;1.33;;
39256;SDS011;67272;48.066;11.038;2024-03-17T11:45:30;2.13;;;1.85;;
39256;SDS011;67272;48.066;11.038;2024-03-17T11:47:59;3.50;;;1.73;;
39256;SDS011;67272;48.066;11.038;2024-03-17T11:50:31;2.78;;;2.58;;
39256;SDS011;67272;48.066;11.038;2024-03-17T11:53:00;2.60;;;1.80;;
39256;SDS011;67272;48.066;11.038;2024-03-17T11:55:27;2.60;;;1.42;;
39256;SDS011;67272;48.066;11.038;2024-03-17T11:57:57;2.35;;;1.55;;
39256;SDS011;67272;48.066;11.038;2024-03-17T12:00:26;2.25;;;1.73;;
39256;SDS011;67272;48.066;11.038;2024-03-17T12:02:52;1.92;;;1.40;;
39256;SDS011;67272;48.066;11.038;2024-03-17T12:05:22;2.63;;;1.70;;
39256;SDS011;67272;48.066;11.038;2024-03-17T12:07:49;2.47;;;1.55;;
39256;SDS011;67272;48.066;11.038;2024-03-17T12:10:19;2.30;;;1.52;;
39256;SDS011;67272;48.066;11.038;2024-03-17T12:12:48;3.13;;;1.70;;
39256;SDS011;67272;48.066;11.038;2024-03-17T12:15:18;2.55;;;2.05;;
39256;SDS011;67272;48.066;11.038;2024-03-17T12:17:51;3.03;;;2.10;;
39256;SDS011;67272;48.066;11.038;2024-03-17T12:20:18;2.53;;;2.30;;
39256;SDS011;67272;48.066;11.038;2024-03-17T12:22:46;3.47;;;2.00;;
39256;SDS011;67272;48.066;11.038;2024-03-17T12:25:19;2.20;;;1.50;;
39256;SDS011;67272;48.066;11.038;2024-03-17T12:27:50;2.28;;;1.40;;
39256;SDS011;67272;48.066;11.038;2024-03-17T12:30:17;1.85;;;1.55;;
39256;SDS011;67272;48.066;11.038;2024-03-17T12:32:46;2.33;;;1.63;;
39256;SDS011;67272;48.066;11.038;2024-03-17T12:35:15;2.58;;;1.73;;
39256;SDS011;67272;48.066;11.038;2024-03-17T12:37:46;2.70;;;1.92;;
39256;SDS011;67272;48.066;11.038;2024-03-17T12:40:19;2.28;;;1.58;;
39256;SDS011;67272;48.066;11.038;2024-03-17T12:42:47;2.78;;;1.67;;
39256;SDS011;67272;48.066;11.038;2024-03-17T12:45:21;2.85;;;1.60;;
39256;SDS011;67272;48.066;11.038;2024-03-17T12:47:52;3.53;;;1.50;;
39256;SDS011;67272;48.066;11.038;2024-03-17T12:50:20;1.85;;;1.55;;
39256;SDS011;67272;48.066;11.038;2024-03-17T12:52:56;2.03;;;1.60;;
39256;SDS011;67272;48.066;11.038;2024-03-17T12:55:23;1.92;;;1.52;;
39256;SDS011;67272;48.066;11.038;2024-03-17T12:58:08;3.00;;;1.75;;
39256;SDS011;67272;48.066;11.038;2024-03-17T13:03:31;1.73;;;1.50;;
39256;SDS011;67272;48.066;11.038;2024-03-17T13:05:59;2.75;;;1.55;;
39256;SDS011;67272;48.066;11.038;2024-03-17T13:08:30;2.88;;;2.58;;
39256;SDS011;67272;48.066;11.038;2024-03-17T13:11:03;3.05;;;1.92;;
39256;SDS011;67272;48.066;11.038;2024-03-17T13:13:29;2.80;;;1.70;;
39256;SDS011;67272;48.066;11.038;2024-03-17T13:15:56;3.25;;;1.80;;
39256;SDS011;67272;48.066;11.038;2024-03-17T13:18:23;2.80;;;1.80;;
39256;SDS011;67272;48.066;11.038;2024-03-17T13:20:56;2.92;;;1.85;;
39256;SDS011;67272;48.066;11.038;2024-03-17T13:23:24;3.67;;;1.92;;
39256;SDS011;67272;48.066;11.038;2024-03-17T13:25:51;2.72;;;1.40;;
39256;SDS011;67272;48.066;11.038;2024-03-17T13:28:17;3.85;;;1.80;;
39256;SDS011;67272;48.066;11.038;2024-03-17T13:30:50;2.75;;;1.40;;
39256;SDS011;67272;48.066;11.038;2024-03-17T13:33:16;2.28;;;1.60;;
39256;SDS011;67272;48.066;11.038;2024-03-17T13:35:43;1.98;;;1.50;;
39256;SDS011;67272;48.066;11.038;2024-03-17T13:38:10;3.53;;;1.52;;
39256;SDS011;67272;48.066;11.038;2024-03-17T13:40:37;1.48;;;1.25;;
39256;SDS011;67272;48.066;11.038;2024-03-17T13:43:03;2.13;;;1.38;;
39256;SDS011;67272;48.066;11.038;2024-03-17T13:45:48;3.47;;;1.50;;
39256;SDS011;67272;48.066;11.038;2024-03-17T13:48:16;1.83;;;1.48;;
39256;SDS011;67272;48.066;11.038;2024-03-17T13:50:42;1.65;;;1.40;;
39256;SDS011;67272;48.066;11.038;2024-03-17T13:53:10;1.65;;;1.55;;
39256;SDS011;67272;48.066;11.038;2024-03-17T13:55:36;1.80;;;1.35;;
39256;SDS011;67272;48.066;11.038;2024-03-17T13:58:03;2.70;;;1.58;;
39256;SDS011;67272;48.066;11.038;2024-03-17T14:00:30;2.95;;;1.83;;
39256;SDS011;67272;48.066;11.038;2024-03-17T14:02:57;2.53;;;1.58;;
39256;SDS011;67272;48.066;11.038;2024-03-17T14:05:24;3.30;;;1.23;;
39256;SDS011;67272;48.066;11.038;2024-03-17T14:07:52;2.10;;;1.50;;
39256;SDS011;67272;48.066;11.038;2024-03-17T14:10:24;2.22;;;1.70;;
39256;SDS011;67272;48.066;11.038;2024-03-17T14:12:54;3.42;;;1.25;;
39256;SDS011;67272;48.066;11.038;2024-03-17T14:15:22;3.35;;;1.60;;
39256;SDS011;67272;48.066;11.038;2024-03-17T14:17:48;2.53;;;1.38;;
39256;SDS011;67272;48.066;11.038;2024-03-17T14:20:15;2.85;;;1.48;;
39256;SDS011;67272;48.066;11.038;2024-03-17T14:22:45;1.80;;;1.40;;
39256;SDS011;67272;48.066;11.038;2024-03-17T14:25:22;3.92;;;1.70;;
39256;SDS011;67272;48.066;11.038;2024-03-17T14:27:50;2.33;;;1.60;;
39256;SDS011;67272;48.066;11.038;2024-03-17T14:30:17;1.95;;;1.42;;
39256;SDS011;67272;48.066;11.038;2024-03-17T14:32:50;1.92;;;1.50;;
39256;SDS011;67272;48.066;11.038;2024-03-17T14:35:17;2.53;;;1.70;;
39256;SDS011;67272;48.066;11.038;2024-03-17T14:37:46;3.45;;;2.40;;
39256;SDS011;67272;48.066;11.038;2024-03-17T14:40:22;3.35;;;1.80;;
39256;SDS011;67272;48.066;11.038;2024-03-17T14:42:54;2.38;;;1.40;;
39256;SDS011;67272;48.066;11.038;2024-03-17T14:45:21;3.15;;;1.42;;
39256;SDS011;67272;48.066;11.038;2024-03-17T14:47:49;2.63;;;1.45;;
39256;SDS011;67272;48.066;11.038;2024-03-17T14:50:16;2.58;;;1.20;;
39256;SDS011;67272;48.066;11.038;2024-03-17T14:52:43;2.15;;;1.50;;
39256;SDS011;67272;48.066;11.038;2024-03-17T14:55:13;3.70;;;1.92;;